Terminal Aerodrome Forecast
Issued by NWS Salt Lake City, UT

Home | Current Version | Previous Version | Text Only | Print | Product List | Glossary On
Versions: 1 2 3 4 5 6 7 8 9 10 11 12 13 14 15 16 17 18 19 20 21 22 23 24 25 26 27 28 29
000
FTUS45 KSLC 300058 AAB
TAFCDC
TAF AMD
KCDC 300058Z 3001/3024 22010G15KT P6SM VCTS FEW100CB SCT200
      TEMPO 3001/3002 22015G25KT P6SM -SHRA BKN100
     FM300200 18008KT P6SM SCT200
     FM301700 21012G20KT P6SM FEW080 SCT200=

USA.gov is the U.S. government's official web portal to all federal, state and local government web resources and services.